Time;durP1;ratioP1;P1;durP2;ratioP2;P2;SDS_P1;SDS_P2;PMS_P1;PMS_P2;Temp;Humidity;BMP_temperature;BMP_pressure;BME280_temperature;BME280_humidity;BME280_pressure;Samples;Min_cycle;Max_cycle;Signal;HPM_P1;HPM_P2
2022/10/15 00:00:37;;;;;;;60.15;40.72;;;13.30;99.90;;;;;;4975812;28;37399;-79
2022/10/15 00:03:03;;;;;;;61.47;39.65;;;13.40;99.90;;;;;;4985398;28;39603;-80
2022/10/15 00:05:29;;;;;;;55.67;39.67;;;13.40;99.90;;;;;;4969694;28;37573;-78
2022/10/15 00:07:55;;;;;;;71.47;47.17;;;13.40;99.90;;;;;;4994508;28;39103;-79
2022/10/15 00:10:22;;;;;;;68.22;45.67;;;13.40;99.90;;;;;;4985872;28;37357;-79
2022/10/15 00:12:48;;;;;;;64.10;44.10;;;13.50;99.90;;;;;;4988955;28;38468;-79
2022/10/15 00:15:15;;;;;;;73.25;48.28;;;13.50;99.90;;;;;;4967914;28;37499;-78
2022/10/15 00:17:41;;;;;;;67.05;44.72;;;13.50;99.90;;;;;;4992561;28;37146;-79
2022/10/15 00:20:09;;;;;;;63.63;43.75;;;13.50;99.90;;;;;;4967905;28;36171;-79
2022/10/15 00:22:36;;;;;;;60.55;42.65;;;13.40;99.90;;;;;;4986456;28;38177;-79
2022/10/15 00:25:03;;;;;;;76.38;49.97;;;13.50;99.90;;;;;;4974328;28;37177;-80
2022/10/15 00:27:29;;;;;;;66.15;47.08;;;13.50;99.90;;;;;;4973308;28;39476;-80
2022/10/15 00:29:55;;;;;;;86.63;53.38;;;13.50;99.90;;;;;;4984752;28;37612;-79
2022/10/15 00:32:21;;;;;;;78.05;50.92;;;13.50;99.90;;;;;;4985522;28;39106;-78
2022/10/15 00:34:47;;;;;;;65.30;45.80;;;13.60;99.90;;;;;;4991446;28;38939;-78
2022/10/15 00:37:13;;;;;;;73.55;47.42;;;13.50;99.90;;;;;;4978919;28;37016;-80
2022/10/15 00:39:39;;;;;;;66.80;47.92;;;13.50;99.90;;;;;;4966032;28;36798;-78
2022/10/15 00:42:05;;;;;;;70.05;46.47;;;13.50;99.90;;;;;;4987440;28;36801;-80
2022/10/15 00:44:47;;;;;;;70.15;47.90;;;13.50;99.90;;;;;;4973603;28;36819;-80
2022/10/15 00:47:38;;;;;;;73.07;49.83;;;13.50;99.90;;;;;;4983193;28;38234;-79
2022/10/15 00:50:06;;;;;;;84.78;53.88;;;13.50;99.90;;;;;;4996542;28;38614;-79
2022/10/15 00:52:55;;;;;;;77.82;49.38;;;13.60;99.90;;;;;;4980159;28;46984;-80
2022/10/15 00:55:32;;;;;;;80.80;53.33;;;13.60;99.90;;;;;;4972428;28;38005;-80
2022/10/15 00:58:04;;;;;;;90.50;54.97;;;13.60;99.90;;;;;;4989369;28;37264;-79
2022/10/15 01:03:07;;;;;;;79.30;52.08;;;13.50;99.90;;;;;;5284170;23;20058;-78
2022/10/15 01:05:36;;;;;;;68.93;48.95;;;13.60;99.90;;;;;;4996620;28;37755;-78
2022/10/15 01:08:02;;;;;;;69.75;51.47;;;13.50;99.90;;;;;;5013643;28;37051;-78
2022/10/15 01:10:50;;;;;;;67.38;50.53;;;13.60;99.90;;;;;;5012011;28;48682;-77
2022/10/15 01:13:28;;;;;;;69.40;50.20;;;13.50;99.90;;;;;;4998268;28;38767;-78
2022/10/15 01:16:05;;;;;;;87.00;55.70;;;13.60;99.90;;;;;;5011669;28;37392;-78
2022/10/15 01:18:33;;;;;;;83.50;57.10;;;13.50;99.90;;;;;;5009146;28;47157;-78
2022/10/15 01:21:12;;;;;;;68.47;49.72;;;13.50;99.90;;;;;;5019638;28;37884;-79
2022/10/15 01:24:11;;;;;;;101.78;61.90;;;13.50;99.90;;;;;;5002963;28;46430;-77
2022/10/15 01:27:15;;;;;;;72.45;49.83;;;13.60;99.90;;;;;;5023250;28;49412;-78
2022/10/15 01:30:06;;;;;;;72.20;49.63;;;13.50;99.90;;;;;;5024444;28;49349;-78
2022/10/15 01:32:42;;;;;;;68.88;49.75;;;13.50;99.90;;;;;;5005178;28;48630;-79
2022/10/15 01:35:20;;;;;;;65.22;47.95;;;13.60;99.90;;;;;;5005555;28;37881;-78
2022/10/15 01:37:57;;;;;;;89.10;56.08;;;13.50;99.90;;;;;;5002064;28;38915;-79
2022/10/15 01:40:42;;;;;;;66.95;48.38;;;13.60;99.90;;;;;;5002134;28;38099;-79
2022/10/15 01:43:14;;;;;;;62.35;48.53;;;13.60;99.90;;;;;;5019026;28;38621;-80
2022/10/15 01:45:56;;;;;;;65.25;47.47;;;13.60;99.90;;;;;;5005225;28;37742;-78
2022/10/15 01:48:26;;;;;;;77.45;52.58;;;13.60;99.90;;;;;;4996150;28;38874;-79
2022/10/15 01:50:56;;;;;;;66.68;49.35;;;13.60;99.90;;;;;;4994680;28;39155;-78
2022/10/15 01:53:26;;;;;;;83.82;55.08;;;13.60;99.90;;;;;;4999502;28;36911;-77
2022/10/15 01:55:56;;;;;;;69.22;45.20;;;13.60;99.90;;;;;;5006370;28;38752;-78
2022/10/15 01:58:24;;;;;;;79.53;51.95;;;13.60;99.90;;;;;;4992408;28;38143;-79
2022/10/15 02:00:54;;;;;;;69.65;48.75;;;13.60;99.90;;;;;;4995139;28;37513;-78
2022/10/15 02:03:20;;;;;;;63.72;46.28;;;13.50;99.90;;;;;;4986123;28;38139;-78
2022/10/15 02:05:54;;;;;;;57.30;43.65;;;13.60;99.90;;;;;;4993011;28;37564;-78
2022/10/15 02:08:44;;;;;;;59.90;45.10;;;13.50;99.90;;;;;;5001325;28;38742;-78
2022/10/15 02:11:17;;;;;;;59.65;44.03;;;13.50;99.90;;;;;;5013424;28;39481;-78
2022/10/15 02:14:12;;;;;;;61.80;46.15;;;13.50;99.90;;;;;;4994981;28;37851;-79
2022/10/15 02:17:04;;;;;;;70.70;47.55;;;13.50;99.90;;;;;;4995955;28;48272;-79
2022/10/15 02:19:42;;;;;;;61.72;45.08;;;13.40;99.90;;;;;;4981996;28;46876;-79
2022/10/15 02:22:23;;;;;;;60.17;45.40;;;13.40;99.90;;;;;;4990981;28;37914;-79
2022/10/15 02:24:55;;;;;;;65.90;47.22;;;13.30;99.90;;;;;;4984706;28;38603;-79
2022/10/15 02:27:23;;;;;;;60.67;45.53;;;13.30;99.90;;;;;;4993812;28;39544;-79
2022/10/15 02:29:51;;;;;;;64.32;47.40;;;13.30;99.90;;;;;;5013183;28;38552;-79
2022/10/15 02:32:20;;;;;;;85.72;54.80;;;13.20;99.90;;;;;;5003772;28;37928;-79
2022/10/15 02:34:48;;;;;;;62.65;43.33;;;13.20;99.90;;;;;;4987747;28;35657;-79
2022/10/15 02:37:20;;;;;;;72.15;46.83;;;13.20;99.90;;;;;;4994326;28;40613;-79
2022/10/15 02:39:46;;;;;;;68.07;47.05;;;13.10;99.90;;;;;;4992684;28;39823;-78
2022/10/15 02:42:15;;;;;;;65.75;46.03;;;13.10;99.90;;;;;;4996199;28;37144;-78
2022/10/15 02:44:41;;;;;;;91.53;55.90;;;13.10;99.90;;;;;;4998646;28;37779;-78
2022/10/15 02:47:07;;;;;;;67.60;47.50;;;13.10;99.90;;;;;;4991692;28;39553;-78
2022/10/15 02:49:34;;;;;;;55.08;42.78;;;13.00;99.90;;;;;;4999044;28;38650;-78
2022/10/15 02:52:00;;;;;;;73.18;48.53;;;12.90;99.90;;;;;;5015353;28;38261;-78
2022/10/15 02:54:26;;;;;;;76.18;51.15;;;13.00;99.90;;;;;;5015898;28;36317;-78
2022/10/15 02:56:52;;;;;;;73.07;49.42;;;12.90;99.90;;;;;;5002803;28;37775;-77
2022/10/15 02:59:19;;;;;;;69.40;46.90;;;12.80;99.90;;;;;;5008954;28;38336;-79
2022/10/15 03:01:45;;;;;;;63.70;44.85;;;12.80;99.90;;;;;;4996849;28;38018;-78
2022/10/15 03:04:11;;;;;;;75.80;49.25;;;12.90;99.90;;;;;;4997634;28;36715;-78
2022/10/15 03:06:38;;;;;;;99.32;58.20;;;12.90;99.90;;;;;;4990498;28;37723;-79
2022/10/15 03:09:04;;;;;;;67.20;47.92;;;12.90;99.90;;;;;;5016788;28;37975;-78
2022/10/15 03:11:30;;;;;;;80.78;50.63;;;12.80;99.90;;;;;;5008453;28;38784;-79
2022/10/15 03:13:56;;;;;;;63.17;45.67;;;12.80;99.90;;;;;;5000358;28;36449;-79
2022/10/15 03:16:23;;;;;;;75.60;50.85;;;12.80;99.90;;;;;;5022676;28;38739;-79
2022/10/15 03:18:49;;;;;;;72.63;49.40;;;12.70;99.90;;;;;;5017849;28;37817;-80
2022/10/15 03:21:16;;;;;;;104.70;60.08;;;12.70;99.90;;;;;;5023174;28;37973;-80
2022/10/15 03:23:42;;;;;;;93.30;55.03;;;12.60;99.90;;;;;;5024173;28;37215;-80
2022/10/15 03:26:08;;;;;;;120.15;65.50;;;12.60;99.90;;;;;;5004368;28;37991;-79
2022/10/15 03:28:36;;;;;;;73.38;46.80;;;12.60;99.90;;;;;;4998962;28;38116;-80
2022/10/15 03:31:04;;;;;;;106.53;61.67;;;12.60;99.90;;;;;;5006106;28;37577;-80
2022/10/15 03:33:32;;;;;;;89.90;58.20;;;12.60;99.90;;;;;;4991796;28;46664;-80
2022/10/15 03:35:59;;;;;;;61.70;45.45;;;12.50;99.90;;;;;;4988051;28;37685;-80
2022/10/15 03:38:32;;;;;;;100.28;59.38;;;12.50;99.90;;;;;;4981827;28;37780;-79
2022/10/15 03:40:58;;;;;;;131.25;71.15;;;12.40;99.90;;;;;;4998879;28;39190;-80
2022/10/15 03:43:25;;;;;;;76.13;51.42;;;12.50;99.90;;;;;;4992258;28;37856;-79
2022/10/15 03:46:02;;;;;;;88.22;54.47;;;12.50;99.90;;;;;;5002506;28;37877;-79
2022/10/15 03:48:31;;;;;;;75.10;53.05;;;12.60;99.90;;;;;;5000506;28;40218;-81
2022/10/15 03:50:58;;;;;;;93.90;58.53;;;12.60;99.90;;;;;;5021696;28;37860;-81
2022/10/15 03:53:24;;;;;;;93.90;58.58;;;12.60;99.90;;;;;;5002020;28;37930;-80
2022/10/15 03:55:52;;;;;;;96.07;60.05;;;12.70;99.90;;;;;;5004740;28;39353;-79
2022/10/15 03:58:19;;;;;;;72.70;51.22;;;12.80;99.90;;;;;;4997288;28;38773;-80
2022/10/15 04:00:47;;;;;;;68.32;49.65;;;12.80;99.90;;;;;;5004729;28;38121;-80
2022/10/15 04:03:13;;;;;;;72.40;49.88;;;12.80;99.90;;;;;;4994249;28;36829;-79
2022/10/15 04:05:39;;;;;;;64.78;47.13;;;12.80;99.90;;;;;;5001839;28;37868;-79
2022/10/15 04:08:06;;;;;;;97.57;57.38;;;12.90;99.90;;;;;;5000761;28;35841;-80
2022/10/15 04:10:32;;;;;;;69.88;48.80;;;12.80;99.90;;;;;;5002994;28;38415;-80
2022/10/15 04:12:59;;;;;;;91.18;54.40;;;12.90;99.90;;;;;;5003260;28;38260;-80
2022/10/15 04:15:26;;;;;;;83.88;52.78;;;12.90;99.90;;;;;;5020427;28;39471;-81
2022/10/15 04:17:54;;;;;;;72.90;48.42;;;12.90;99.90;;;;;;5006567;28;37582;-81
2022/10/15 04:20:21;;;;;;;64.85;44.50;;;12.90;99.90;;;;;;5024095;28;38543;-80
2022/10/15 04:22:47;;;;;;;85.07;52.60;;;13.00;99.90;;;;;;5007775;28;37345;-80
2022/10/15 04:25:15;;;;;;;79.97;51.60;;;13.00;99.90;;;;;;5021098;28;39421;-80
2022/10/15 04:27:42;;;;;;;123.05;60.03;;;13.00;99.90;;;;;;5003485;28;37997;-80
2022/10/15 04:30:09;;;;;;;83.13;52.83;;;13.10;99.90;;;;;;4997070;28;38705;-80
2022/10/15 04:32:36;;;;;;;74.20;46.65;;;13.10;99.90;;;;;;4999864;28;36168;-80
2022/10/15 04:35:02;;;;;;;63.40;43.65;;;13.10;99.90;;;;;;4996205;28;39006;-79
2022/10/15 04:37:31;;;;;;;64.05;43.50;;;13.20;99.90;;;;;;5015393;28;38755;-80
2022/10/15 04:39:57;;;;;;;85.35;50.55;;;13.20;99.90;;;;;;5013204;28;39460;-80
2022/10/15 04:42:23;;;;;;;81.43;49.03;;;13.20;99.90;;;;;;4996373;28;37228;-79
2022/10/15 04:44:50;;;;;;;79.53;48.80;;;13.20;99.90;;;;;;5001711;28;37791;-80
2022/10/15 04:47:16;;;;;;;89.70;50.25;;;13.20;99.90;;;;;;5014623;28;38520;-78
2022/10/15 04:49:42;;;;;;;95.70;52.97;;;13.30;99.90;;;;;;5002718;28;37946;-78
2022/10/15 04:52:09;;;;;;;66.70;44.83;;;13.20;99.90;;;;;;5021068;28;38234;-79
2022/10/15 04:54:35;;;;;;;79.53;46.13;;;13.20;99.90;;;;;;5005974;28;38937;-78
2022/10/15 04:57:03;;;;;;;64.15;43.03;;;13.20;99.90;;;;;;5023494;28;39992;-78
2022/10/15 04:59:29;;;;;;;69.88;43.25;;;13.20;99.90;;;;;;5008346;28;47449;-79
2022/10/15 05:01:56;;;;;;;70.45;43.33;;;13.20;99.90;;;;;;5006609;28;36023;-80
2022/10/15 05:04:23;;;;;;;57.92;39.17;;;13.20;99.90;;;;;;5002781;28;39180;-80
2022/10/15 05:06:56;;;;;;;68.30;42.72;;;13.10;99.90;;;;;;5005549;28;37826;-79
2022/10/15 05:09:23;;;;;;;60.88;41.38;;;13.10;99.90;;;;;;5024269;28;38535;-79
2022/10/15 05:11:50;;;;;;;63.25;41.88;;;13.10;99.90;;;;;;5030405;28;37638;-80
2022/10/15 05:14:17;;;;;;;56.35;39.00;;;13.10;99.90;;;;;;5020396;28;39669;-81
2022/10/15 05:16:43;;;;;;;51.65;36.53;;;13.10;99.90;;;;;;5015053;28;36614;-79
2022/10/15 05:19:15;;;;;;;49.78;34.55;;;13.10;99.90;;;;;;5029341;28;38699;-80
2022/10/15 05:21:42;;;;;;;67.78;39.00;;;13.10;99.90;;;;;;5003343;28;37587;-81
2022/10/15 05:24:09;;;;;;;50.05;32.70;;;13.10;99.90;;;;;;5004121;28;38244;-81
2022/10/15 05:26:36;;;;;;;46.78;33.38;;;13.10;99.90;;;;;;5030313;28;39904;-78
2022/10/15 05:29:14;;;;;;;44.42;32.90;;;13.10;99.90;;;;;;5007724;28;37534;-78
2022/10/15 05:31:40;;;;;;;51.22;34.63;;;13.10;99.90;;;;;;5015114;28;48633;-79
2022/10/15 05:34:12;;;;;;;54.45;36.25;;;13.10;99.90;;;;;;5012100;28;38164;-80
2022/10/15 05:36:42;;;;;;;50.63;34.03;;;13.20;99.90;;;;;;5021673;28;38933;-81
2022/10/15 05:39:11;;;;;;;47.63;33.13;;;13.20;99.90;;;;;;5020156;28;38999;-79
2022/10/15 05:41:37;;;;;;;63.58;37.63;;;13.30;99.90;;;;;;4997735;28;36528;-81
2022/10/15 05:44:03;;;;;;;52.78;36.17;;;13.20;99.90;;;;;;5004047;28;38138;-80
2022/10/15 05:46:37;;;;;;;53.00;36.28;;;13.20;99.90;;;;;;5006396;28;37441;-80
2022/10/15 05:49:04;;;;;;;56.50;36.75;;;13.30;99.90;;;;;;5009299;28;37030;-80
2022/10/15 05:51:30;;;;;;;81.03;43.92;;;13.30;99.90;;;;;;4993702;28;36487;-80
2022/10/15 05:53:57;;;;;;;69.63;42.00;;;13.20;99.90;;;;;;5003634;28;38552;-80
2022/10/15 05:56:26;;;;;;;77.00;44.20;;;13.20;99.90;;;;;;5001629;28;39179;-80
2022/10/15 05:58:57;;;;;;;91.43;47.80;;;13.30;99.90;;;;;;5009072;28;38816;-80
2022/10/15 06:01:23;;;;;;;85.25;44.40;;;13.30;99.90;;;;;;4984729;28;37469;-80
2022/10/15 06:03:49;;;;;;;92.05;46.22;;;13.30;99.90;;;;;;4990864;28;40231;-79
2022/10/15 06:06:22;;;;;;;93.00;47.33;;;13.30;99.90;;;;;;5013239;28;38256;-79
2022/10/15 06:08:49;;;;;;;100.05;46.92;;;13.30;99.90;;;;;;5018105;28;38796;-80
2022/10/15 06:11:16;;;;;;;81.90;44.28;;;13.30;99.90;;;;;;4997962;28;37100;-80
2022/10/15 06:13:43;;;;;;;86.43;43.30;;;13.30;99.90;;;;;;5019738;28;37223;-80
2022/10/15 06:16:12;;;;;;;90.63;45.72;;;13.30;99.90;;;;;;5015968;28;38135;-79
2022/10/15 06:18:38;;;;;;;93.07;48.08;;;13.30;99.90;;;;;;4995316;28;37306;-79
2022/10/15 06:21:06;;;;;;;98.25;48.78;;;13.30;99.90;;;;;;4995116;28;34698;-79
2022/10/15 06:23:33;;;;;;;95.55;50.40;;;13.30;99.90;;;;;;5016847;28;40118;-79
2022/10/15 06:26:08;;;;;;;92.05;48.78;;;13.30;99.90;;;;;;5015566;28;38991;-80
2022/10/15 06:28:36;;;;;;;84.30;46.03;;;13.30;99.90;;;;;;5007868;28;46944;-80
2022/10/15 06:31:05;;;;;;;90.32;47.35;;;13.30;99.90;;;;;;5005274;28;38013;-81
2022/10/15 06:33:32;;;;;;;82.95;47.13;;;13.30;99.90;;;;;;5012069;28;48787;-80
2022/10/15 06:36:04;;;;;;;85.28;47.28;;;13.30;99.90;;;;;;5008647;28;38290;-80
2022/10/15 06:38:32;;;;;;;75.22;45.15;;;13.30;99.90;;;;;;5006132;28;47673;-82
2022/10/15 06:41:04;;;;;;;87.35;48.35;;;13.30;99.90;;;;;;5006631;28;37781;-80
2022/10/15 06:43:31;;;;;;;;;;;13.30;99.90;;;;;;4999708;28;37307;-80
2022/10/15 06:45:59;;;;;;;78.68;44.65;;;13.40;99.90;;;;;;5007541;28;38771;-80
2022/10/15 06:48:26;;;;;;;66.18;41.35;;;13.40;99.90;;;;;;5011913;28;38436;-81
2022/10/15 06:50:54;;;;;;;55.58;35.17;;;13.40;99.90;;;;;;5033271;28;37815;-80
2022/10/15 06:53:22;;;;;;;54.33;35.45;;;13.30;99.90;;;;;;5010105;28;39641;-80
2022/10/15 06:55:50;;;;;;;59.00;36.28;;;13.40;99.90;;;;;;5008213;28;38323;-81
2022/10/15 06:58:18;;;;;;;60.42;34.47;;;13.40;99.90;;;;;;4995266;28;38652;-81
2022/10/15 07:00:45;;;;;;;50.88;32.92;;;13.40;99.90;;;;;;5002069;28;41311;-80
2022/10/15 07:03:15;;;;;;;53.22;33.63;;;13.40;99.90;;;;;;5000201;28;38978;-80
2022/10/15 07:05:43;;;;;;;52.95;32.00;;;13.40;99.90;;;;;;5006625;28;37998;-80
2022/10/15 07:08:11;;;;;;;52.40;33.35;;;13.40;99.90;;;;;;5003286;28;38531;-80
2022/10/15 07:10:39;;;;;;;51.38;33.90;;;13.50;99.90;;;;;;4991680;28;38034;-79
2022/10/15 07:13:10;;;;;;;49.30;32.70;;;13.40;99.90;;;;;;4999313;28;40897;-80
2022/10/15 07:15:52;;;;;;;53.72;34.20;;;13.40;99.90;;;;;;5006588;28;38573;-80
2022/10/15 07:18:31;;;;;;;70.03;40.97;;;13.50;99.90;;;;;;5020099;28;39514;-80
2022/10/15 07:20:57;;;;;;;70.90;42.28;;;13.40;99.90;;;;;;5027131;28;40228;-80
2022/10/15 07:23:25;;;;;;;87.55;45.97;;;13.30;99.90;;;;;;5003941;28;39126;-81
2022/10/15 07:25:59;;;;;;;105.07;50.85;;;13.40;99.90;;;;;;5015600;28;40015;-80
2022/10/15 07:28:26;;;;;;;95.13;51.55;;;13.40;99.90;;;;;;5007031;28;38376;-80
2022/10/15 07:30:54;;;;;;;91.15;51.30;;;13.40;99.90;;;;;;5002186;28;37593;-79
2022/10/15 07:33:21;;;;;;;92.93;52.03;;;13.40;99.90;;;;;;4995534;28;38367;-80
2022/10/15 07:35:47;;;;;;;102.28;53.78;;;13.40;99.90;;;;;;5100670;23;37097;-79
2022/10/15 07:38:15;;;;;;;108.13;54.55;;;13.50;99.90;;;;;;4958688;28;37595;-79
2022/10/15 07:40:42;;;;;;;98.15;52.00;;;13.40;99.90;;;;;;4973193;28;38220;-79
2022/10/15 07:43:08;;;;;;;120.55;56.97;;;13.40;99.90;;;;;;4976024;28;37770;-79
2022/10/15 07:45:34;;;;;;;96.20;52.50;;;13.50;99.90;;;;;;4966133;28;35143;-79
2022/10/15 07:48:01;;;;;;;93.82;50.95;;;13.50;99.90;;;;;;4964163;28;37467;-79
2022/10/15 07:50:27;;;;;;;93.88;50.85;;;13.50;99.90;;;;;;4975267;28;37749;-78
2022/10/15 07:52:53;;;;;;;102.60;53.78;;;13.60;99.90;;;;;;4975079;28;39938;-79
2022/10/15 07:55:19;;;;;;;92.95;51.58;;;13.60;99.90;;;;;;4970926;28;38466;-80
2022/10/15 07:57:45;;;;;;;86.57;47.30;;;13.60;99.90;;;;;;4986354;28;38397;-79
2022/10/15 08:00:12;;;;;;;78.35;45.13;;;13.70;99.90;;;;;;4975780;28;37856;-79
2022/10/15 08:02:55;;;;;;;73.72;45.50;;;13.70;99.90;;;;;;4992493;28;40407;-79
2022/10/15 08:05:23;;;;;;;77.85;44.83;;;13.70;99.90;;;;;;4921948;28;38289;-79
2022/10/15 08:07:49;;;;;;;63.63;43.45;;;13.80;99.90;;;;;;4984082;28;38527;-79
2022/10/15 08:10:24;;;;;;;65.25;43.35;;;13.80;99.90;;;;;;4970249;28;37111;-79
2022/10/15 08:12:50;;;;;;;64.45;42.40;;;13.80;99.90;;;;;;4968128;28;39211;-79
2022/10/15 08:15:17;;;;;;;62.17;40.65;;;13.90;99.90;;;;;;4963248;28;37506;-81
2022/10/15 08:17:43;;;;;;;61.38;39.85;;;13.90;99.90;;;;;;4983533;28;38169;-79
2022/10/15 08:20:10;;;;;;;53.63;37.45;;;14.00;99.90;;;;;;4969556;28;37713;-79
2022/10/15 08:22:37;;;;;;;52.03;35.75;;;14.00;99.90;;;;;;4971313;28;38039;-79
2022/10/15 08:25:04;;;;;;;52.65;35.75;;;14.10;99.90;;;;;;4957958;28;39558;-78
2022/10/15 08:27:30;;;;;;;46.72;32.70;;;14.10;99.90;;;;;;4970716;28;47226;-79
2022/10/15 08:29:56;;;;;;;44.13;32.55;;;14.10;99.90;;;;;;4971261;28;37564;-78
2022/10/15 08:32:23;;;;;;;44.72;32.10;;;14.20;99.90;;;;;;4959277;28;39506;-77
2022/10/15 08:34:49;;;;;;;46.17;30.88;;;14.30;99.90;;;;;;5005600;23;38520;-78
2022/10/15 08:37:15;;;;;;;35.67;27.60;;;14.30;99.90;;;;;;4980512;28;37227;-78
2022/10/15 08:39:41;;;;;;;34.67;25.98;;;14.30;99.90;;;;;;4972217;28;36320;-78
2022/10/15 08:42:34;;;;;;;35.78;27.70;;;14.30;99.90;;;;;;4967598;28;38609;-78
2022/10/15 08:45:05;;;;;;;36.63;26.23;;;14.40;99.90;;;;;;4979520;28;39823;-78
2022/10/15 08:47:46;;;;;;;36.38;25.95;;;14.30;99.90;;;;;;4964522;28;47064;-78
2022/10/15 08:50:24;;;;;;;36.13;26.13;;;14.30;99.90;;;;;;4987127;28;37693;-78
2022/10/15 08:52:51;;;;;;;37.63;26.55;;;14.20;99.90;;;;;;4992700;28;40165;-78
2022/10/15 08:55:20;;;;;;;42.92;27.52;;;14.20;99.90;;;;;;4981365;28;39016;-78
2022/10/15 08:57:57;;;;;;;41.50;28.17;;;14.20;99.90;;;;;;4960450;28;36925;-75
2022/10/15 09:00:49;;;;;;;40.08;27.05;;;14.20;99.90;;;;;;4963437;28;37769;-77
2022/10/15 09:03:33;;;;;;;43.40;28.42;;;14.10;99.90;;;;;;4956533;28;38146;-78
2022/10/15 09:06:35;;;;;;;41.67;26.73;;;14.10;99.90;;;;;;4991845;28;38480;-79
2022/10/15 09:09:13;;;;;;;41.05;27.17;;;14.10;99.90;;;;;;4912188;28;48847;-76
2022/10/15 09:12:02;;;;;;;55.95;30.60;;;14.10;99.90;;;;;;4961960;28;47017;-77
2022/10/15 09:14:33;;;;;;;41.08;27.60;;;14.10;99.90;;;;;;4964029;28;39289;-77
2022/10/15 09:17:12;;;;;;;44.92;28.45;;;14.10;99.90;;;;;;4979512;28;38751;-77
2022/10/15 09:19:41;;;;;;;39.97;27.55;;;14.20;99.90;;;;;;4962933;28;46978;-77
2022/10/15 09:22:13;;;;;;;43.70;27.58;;;14.30;99.90;;;;;;4958627;28;35973;-79
2022/10/15 09:24:41;;;;;;;35.25;24.98;;;14.30;99.90;;;;;;4966342;28;37334;-78
2022/10/15 09:27:29;;;;;;;35.08;23.92;;;14.30;99.90;;;;;;4992202;28;37771;-77
2022/10/15 09:30:15;;;;;;;37.75;25.08;;;14.30;99.90;;;;;;4981950;28;38198;-78
2022/10/15 09:32:51;;;;;;;36.55;22.90;;;14.30;99.90;;;;;;5011822;28;48341;-77
2022/10/15 09:35:42;;;;;;;31.85;22.75;;;14.30;99.90;;;;;;4984806;28;37803;-78
2022/10/15 09:38:31;;;;;;;33.38;21.75;;;14.40;99.90;;;;;;5009399;28;39422;-79
2022/10/15 09:41:39;;;;;;;29.52;21.83;;;14.40;99.90;;;;;;5004334;28;38292;-80
2022/10/15 09:44:12;;;;;;;28.27;19.25;;;14.40;99.90;;;;;;4979094;28;47109;-78
2022/10/15 09:46:47;;;;;;;35.28;21.27;;;14.40;99.90;;;;;;5003281;28;37952;-79
2022/10/15 09:49:25;;;;;;;32.22;20.25;;;14.40;99.90;;;;;;5019048;28;37151;-79
2022/10/15 09:52:09;;;;;;;32.55;20.58;;;14.40;99.90;;;;;;5019414;28;37003;-77
2022/10/15 09:54:58;;;;;;;22.15;16.58;;;14.40;99.90;;;;;;5019801;28;49458;-79
2022/10/15 09:57:25;;;;;;;30.67;18.75;;;14.40;99.90;;;;;;4997109;28;38117;-78
2022/10/15 09:59:59;;;;;;;23.13;15.93;;;14.40;99.90;;;;;;5015185;28;38371;-79
2022/10/15 10:02:26;;;;;;;19.85;14.77;;;14.40;99.90;;;;;;5013546;28;36797;-77
2022/10/15 10:04:53;;;;;;;18.17;13.48;;;14.40;99.90;;;;;;4993846;28;36641;-78
2022/10/15 10:07:34;;;;;;;22.63;13.98;;;14.30;99.90;;;;;;5011250;28;38742;-78
2022/10/15 10:10:22;;;;;;;17.63;12.40;;;14.30;99.90;;;;;;4998951;28;38427;-78
2022/10/15 10:12:48;;;;;;;17.63;12.25;;;14.30;99.90;;;;;;4995079;28;48766;-77
2022/10/15 10:15:40;;;;;;;19.05;13.38;;;14.40;99.90;;;;;;5004070;28;37234;-77
2022/10/15 10:18:27;;;;;;;25.27;14.03;;;14.40;99.90;;;;;;5016774;28;43035;-79
2022/10/15 10:21:00;;;;;;;19.73;13.23;;;14.50;99.90;;;;;;4999734;28;40646;-78
2022/10/15 10:23:38;;;;;;;18.88;12.27;;;14.40;99.90;;;;;;5012970;28;38639;-79
2022/10/15 10:26:09;;;;;;;15.40;11.65;;;14.40;99.90;;;;;;5001068;28;37238;-79
2022/10/15 10:28:43;;;;;;;16.92;12.48;;;14.40;99.90;;;;;;4992554;28;47061;-78
2022/10/15 10:31:09;;;;;;;19.10;12.68;;;14.40;99.90;;;;;;4995152;28;37108;-78
2022/10/15 10:33:39;;;;;;;15.73;12.75;;;14.40;99.90;;;;;;5013164;28;38439;-77
2022/10/15 10:36:07;;;;;;;16.95;12.77;;;14.50;99.90;;;;;;4998506;28;37504;-79
2022/10/15 10:38:36;;;;;;;23.90;14.77;;;14.50;99.90;;;;;;5000357;28;37770;-79
2022/10/15 10:41:10;;;;;;;22.00;14.90;;;14.50;99.90;;;;;;5000041;28;37070;-78
2022/10/15 10:43:39;;;;;;;22.00;14.52;;;14.50;99.90;;;;;;5009340;28;48472;-78
2022/10/15 10:46:14;;;;;;;20.42;14.88;;;14.60;99.90;;;;;;4985948;28;37455;-77
2022/10/15 10:48:44;;;;;;;19.95;14.40;;;14.60;99.90;;;;;;5015348;28;39200;-77
2022/10/15 10:51:29;;;;;;;20.95;16.98;;;14.60;99.90;;;;;;4984976;28;38093;-78
2022/10/15 10:54:10;;;;;;;19.33;14.93;;;14.60;99.90;;;;;;4992892;28;38117;-79
2022/10/15 10:56:42;;;;;;;23.35;17.48;;;14.70;99.90;;;;;;4996515;28;47815;-79
2022/10/15 10:59:17;;;;;;;17.13;15.32;;;14.70;99.90;;;;;;4996110;28;39808;-79
2022/10/15 11:01:43;;;;;;;19.63;16.65;;;14.80;99.90;;;;;;5013521;28;37323;-79
2022/10/15 11:04:22;;;;;;;25.70;18.02;;;14.80;99.90;;;;;;5000454;28;39375;-80
2022/10/15 11:06:54;;;;;;;17.67;15.27;;;14.90;99.90;;;;;;5000688;28;37295;-78
2022/10/15 11:09:37;;;;;;;18.15;16.20;;;15.00;99.90;;;;;;5007914;28;39365;-79
2022/10/15 11:12:28;;;;;;;21.45;14.95;;;15.10;99.90;;;;;;4984449;28;37258;-81
2022/10/15 11:15:16;;;;;;;19.98;15.43;;;15.20;99.90;;;;;;4990653;28;38338;-78
2022/10/15 11:18:04;;;;;;;15.90;13.88;;;15.30;99.90;;;;;;4964829;28;48686;-80
2022/10/15 11:20:51;;;;;;;15.10;12.75;;;15.50;99.90;;;;;;4982855;28;47065;-80
2022/10/15 11:23:29;;;;;;;21.95;14.20;;;15.60;99.90;;;;;;4998547;28;38182;-79
2022/10/15 11:26:01;;;;;;;15.07;12.50;;;15.60;99.90;;;;;;4982178;28;38130;-80
2022/10/15 11:28:58;;;;;;;14.35;11.68;;;15.70;99.90;;;;;;4982491;28;38527;-81
2022/10/15 11:31:45;;;;;;;12.90;11.60;;;15.90;99.90;;;;;;4983763;28;37448;-81
2022/10/15 11:34:36;;;;;;;13.60;11.60;;;15.90;99.90;;;;;;4986181;28;35226;-78
2022/10/15 11:37:28;;;;;;;12.68;11.25;;;16.00;99.90;;;;;;4981040;28;37582;-84
2022/10/15 11:40:22;;;;;;;11.75;10.55;;;16.10;99.90;;;;;;4984901;28;47245;-83
2022/10/15 11:42:57;;;;;;;11.95;10.77;;;16.10;99.90;;;;;;4991296;28;48542;-87
2022/10/15 11:45:32;;;;;;;11.32;10.23;;;16.10;99.90;;;;;;4981567;28;39009;-86
2022/10/15 11:48:03;;;;;;;10.93;9.18;;;16.20;99.90;;;;;;4978381;28;39569;-81
2022/10/15 11:50:50;;;;;;;13.52;10.48;;;16.00;99.90;;;;;;4994297;28;48636;-84
2022/10/15 11:53:37;;;;;;;10.27;9.23;;;16.00;99.90;;;;;;4989782;28;38849;-82
2022/10/15 11:56:09;;;;;;;9.60;8.70;;;16.10;99.90;;;;;;4988051;28;38026;-83
2022/10/15 11:58:44;;;;;;;8.52;7.65;;;16.30;99.90;;;;;;4966402;28;47181;-82
2022/10/15 12:01:29;;;;;;;8.73;7.57;;;16.30;99.90;;;;;;4960383;28;38369;-84
2022/10/15 12:04:17;;;;;;;9.02;8.20;;;16.40;99.90;;;;;;4981248;28;40256;-83
2022/10/15 12:06:49;;;;;;;7.50;6.75;;;16.30;99.90;;;;;;4950460;28;47033;-81
2022/10/15 12:09:33;;;;;;;8.00;7.20;;;16.50;99.90;;;;;;4962219;28;37088;-84
2022/10/15 12:12:13;;;;;;;8.60;7.57;;;16.50;99.90;;;;;;4979297;28;38423;-84
2022/10/15 12:15:12;;;;;;;8.35;7.55;;;16.40;99.90;;;;;;4981009;28;48188;-83
2022/10/15 12:17:54;;;;;;;7.95;7.15;;;16.50;99.90;;;;;;4988457;28;49008;-85
2022/10/15 12:20:22;;;;;;;7.75;7.03;;;16.50;99.90;;;;;;4981973;28;37466;-83
2022/10/15 12:22:51;;;;;;;9.70;7.82;;;16.50;99.90;;;;;;4967202;28;37790;-85
2022/10/15 12:25:40;;;;;;;7.65;6.95;;;16.50;99.90;;;;;;4957164;28;38246;-83
2022/10/15 12:28:19;;;;;;;8.10;7.30;;;16.50;99.90;;;;;;4981408;28;37870;-81
2022/10/15 12:30:54;;;;;;;7.50;6.53;;;16.50;99.90;;;;;;4994587;28;37888;-82
2022/10/15 12:33:28;;;;;;;7.28;6.53;;;16.40;99.90;;;;;;4990672;28;37800;-83
2022/10/15 12:36:02;;;;;;;6.65;6.00;;;16.50;99.90;;;;;;5000897;28;38793;-82
2022/10/15 12:38:33;;;;;;;6.00;5.45;;;16.40;99.90;;;;;;4975425;28;40291;-79
2022/10/15 12:41:08;;;;;;;7.18;6.05;;;16.50;99.90;;;;;;4996254;28;38053;-83
2022/10/15 12:43:40;;;;;;;5.05;4.60;;;16.50;99.90;;;;;;4999168;28;47374;-81
2022/10/15 12:46:09;;;;;;;6.15;4.97;;;16.50;99.90;;;;;;4980095;28;40361;-82
2022/10/15 12:48:41;;;;;;;6.30;5.32;;;16.60;99.90;;;;;;4982660;28;39001;-81
2022/10/15 12:51:23;;;;;;;7.05;4.97;;;16.50;99.90;;;;;;4991381;28;38867;-81
2022/10/15 12:53:51;;;;;;;4.45;4.05;;;16.60;99.90;;;;;;4979348;28;37727;-83
2022/10/15 12:56:22;;;;;;;4.20;3.88;;;16.60;99.90;;;;;;4991141;28;38513;-81